createdAt,value
2023-03-01T00:02:01.101Z,99723.66
2023-03-01T00:04:28.577Z,99722.88
2023-03-01T00:06:54.971Z,99717.41
2023-03-01T00:09:21.283Z,99722.63
2023-03-01T00:11:47.600Z,99721.22
2023-03-01T00:14:13.930Z,99716.13
2023-03-01T00:16:40.994Z,99719.47
2023-03-01T00:19:14.430Z,99724.25
2023-03-01T00:21:40.924Z,99728.97
2023-03-01T00:24:07.408Z,99726.56
2023-03-01T00:26:33.756Z,99727.59
2023-03-01T00:29:00.160Z,99721.66
2023-03-01T00:31:27.604Z,99728.63
2023-03-01T00:34:00.215Z,99738.84
2023-03-01T00:36:27.218Z,99728.41
2023-03-01T00:38:53.749Z,99722.16
2023-03-01T00:41:20.158Z,99721.91
2023-03-01T00:43:46.484Z,99714.59
2023-03-01T00:46:16.850Z,99715.03
2023-03-01T00:48:43.193Z,99724.53
2023-03-01T00:51:10.240Z,99710.28
2023-03-01T00:53:36.549Z,99718.75
2023-03-01T00:56:02.933Z,99717.09
2023-03-01T00:58:29.305Z,99710.59
2023-03-01T01:00:55.697Z,99716.41
2023-03-01T01:03:22.104Z,99721.09
2023-03-01T01:05:48.415Z,99718.66
2023-03-01T01:08:14.739Z,99714.03
2023-03-01T01:10:41.072Z,99704.66
2023-03-01T01:13:07.390Z,99699.53
2023-03-01T01:15:36.440Z,99703.47
2023-03-01T01:18:02.811Z,99696.72
2023-03-01T01:20:29.148Z,99695.13
2023-03-01T01:22:55.517Z,99697.22
2023-03-01T01:25:21.892Z,99688.38
2023-03-01T01:27:48.208Z,99689.44
2023-03-01T01:30:14.536Z,99685.38
2023-03-01T01:32:40.893Z,99690.91
2023-03-01T01:35:07.301Z,99685.00
2023-03-01T01:37:33.856Z,99687.91
2023-03-01T01:40:00.394Z,99684.41
2023-03-01T01:42:26.763Z,99682.72
2023-03-01T01:45:11.901Z,99679.00
2023-03-01T01:47:38.213Z,99680.25
2023-03-01T01:50:04.579Z,99674.94
2023-03-01T01:52:32.646Z,99669.25
2023-03-01T01:55:00.801Z,99668.91
2023-03-01T01:57:28.632Z,99676.28
2023-03-01T01:59:55.753Z,99665.28
2023-03-01T02:02:22.170Z,99665.28
2023-03-01T02:04:48.981Z,99655.31
2023-03-01T02:07:16.320Z,99657.19
2023-03-01T02:09:46.941Z,99665.59
2023-03-01T02:12:13.760Z,99653.78
2023-03-01T02:14:40.090Z,99664.66
2023-03-01T02:17:06.402Z,99660.59
2023-03-01T02:19:48.051Z,99653.03
2023-03-01T02:22:19.677Z,99655.13
2023-03-01T02:24:58.287Z,99657.22
2023-03-01T02:27:25.669Z,99655.56
2023-03-01T02:29:52.008Z,99655.00
2023-03-01T02:32:25.978Z,99658.69
2023-03-01T02:34:53.188Z,99650.09
2023-03-01T02:37:25.762Z,99652.19
2023-03-01T02:39:54.402Z,99645.47
2023-03-01T02:42:27.107Z,99647.53
2023-03-01T02:44:54.685Z,99641.63
2023-03-01T02:47:20.991Z,99642.88
2023-03-01T02:49:47.322Z,99639.81
2023-03-01T02:52:22.679Z,99623.28
2023-03-01T02:54:54.855Z,99621.00
2023-03-01T02:57:21.675Z,99623.22
2023-03-01T02:59:47.981Z,99624.16
2023-03-01T03:02:39.672Z,99622.97
2023-03-01T03:05:07.065Z,99626.69
2023-03-01T03:07:35.094Z,99620.78
2023-03-01T03:10:01.819Z,99623.44
2023-03-01T03:12:28.138Z,99615.88
2023-03-01T03:14:54.459Z,99610.56
2023-03-01T03:17:20.813Z,99609.75
2023-03-01T03:19:47.145Z,99608.38
2023-03-01T03:22:13.477Z,99598.72
2023-03-01T03:24:39.789Z,99603.25
2023-03-01T03:27:06.212Z,99603.72
2023-03-01T03:29:32.536Z,99600.81
2023-03-01T03:31:58.970Z,99603.09
2023-03-01T03:34:25.319Z,99600.59
2023-03-01T03:36:57.632Z,99588.31
2023-03-01T03:39:24.436Z,99595.88
2023-03-01T03:41:50.807Z,99599.91
2023-03-01T03:44:17.126Z,99599.53
2023-03-01T03:46:43.434Z,99595.50
2023-03-01T03:49:09.781Z,99606.13
2023-03-01T03:51:36.098Z,99600.00
2023-03-01T03:54:02.404Z,99604.53
2023-03-01T03:56:29.083Z,99604.53
2023-03-01T03:58:55.450Z,99605.31
2023-03-01T04:01:21.819Z,99605.31
2023-03-01T04:03:48.148Z,99599.19
2023-03-01T04:06:14.820Z,99594.88
2023-03-01T04:08:41.891Z,99602.28
2023-03-01T04:11:27.043Z,99600.69
2023-03-01T04:13:54.094Z,99599.06
2023-03-01T04:16:20.439Z,99601.25
2023-03-01T04:18:46.845Z,99601.50
2023-03-01T04:21:13.232Z,99597.88
2023-03-01T04:23:40.024Z,99599.13
2023-03-01T04:26:06.385Z,99594.84
2023-03-01T04:28:36.960Z,99598.75
2023-03-01T04:31:14.052Z,99594.94
2023-03-01T04:33:41.500Z,99594.56
2023-03-01T04:36:09.671Z,99593.16
2023-03-01T04:38:38.112Z,99596.28
2023-03-01T04:41:05.390Z,99589.91
2023-03-01T04:43:31.744Z,99599.28
2023-03-01T04:46:03.661Z,99597.09
2023-03-01T04:48:30.537Z,99599.75
2023-03-01T04:50:56.876Z,99599.75
2023-03-01T04:53:23.186Z,99598.94
2023-03-01T04:55:49.519Z,99594.88
2023-03-01T04:58:15.824Z,99600.75
2023-03-01T05:00:42.140Z,99601.38
2023-03-01T05:03:08.769Z,99597.28
2023-03-01T05:05:36.012Z,99602.59
2023-03-01T05:08:03.512Z,99608.75
2023-03-01T05:10:30.524Z,99601.81
2023-03-01T05:12:58.252Z,99601.81
2023-03-01T05:15:27.726Z,99592.56
2023-03-01T05:17:55.210Z,99587.47
2023-03-01T05:20:23.838Z,99593.00
2023-03-01T05:22:50.788Z,99580.38
2023-03-01T05:25:17.839Z,99591.03
2023-03-01T05:27:44.181Z,99583.28
2023-03-01T05:30:16.727Z,99572.03
2023-03-01T05:32:44.296Z,99565.91
2023-03-01T05:35:14.097Z,99566.13
2023-03-01T05:37:42.466Z,99569.84
2023-03-01T05:40:16.371Z,99574.34
2023-03-01T05:42:43.667Z,99570.25
2023-03-01T05:45:10.564Z,99576.84
2023-03-01T05:47:36.958Z,99582.38
2023-03-01T05:50:03.265Z,99579.72
2023-03-01T05:52:29.849Z,99588.97
2023-03-01T05:54:56.389Z,99589.97
2023-03-01T05:57:22.760Z,99583.28
2023-03-01T05:59:49.064Z,99585.13
2023-03-01T06:02:15.389Z,99582.47
2023-03-01T06:04:41.781Z,99586.97
2023-03-01T06:07:08.190Z,99583.28
2023-03-01T06:09:34.536Z,99585.94
2023-03-01T06:12:00.961Z,99588.59
2023-03-01T06:14:27.283Z,99592.06
2023-03-01T06:16:53.608Z,99590.44
2023-03-01T06:19:19.926Z,99585.56
2023-03-01T06:21:46.255Z,99583.13
2023-03-01T06:24:12.563Z,99592.94
2023-03-01T06:26:38.870Z,99587.63
2023-03-01T06:29:05.176Z,99594.81
2023-03-01T06:31:31.523Z,99587.84
2023-03-01T06:33:57.860Z,99587.63
2023-03-01T06:36:24.184Z,99588.44
2023-03-01T06:38:50.492Z,99587.16
2023-03-01T06:41:16.825Z,99587.78
2023-03-01T06:43:43.134Z,99587.56
2023-03-01T06:46:09.510Z,99586.50
2023-03-01T06:48:35.876Z,99592.88
2023-03-01T06:51:02.200Z,99590.22
2023-03-01T06:53:29.017Z,99588.72
2023-03-01T06:55:56.011Z,99587.50
2023-03-01T06:58:22.336Z,99580.91
2023-03-01T07:00:48.674Z,99588.22
2023-03-01T07:03:15.017Z,99586.75
2023-03-01T07:05:41.345Z,99590.81
2023-03-01T07:08:07.664Z,99576.47
2023-03-01T07:10:33.975Z,99574.38
2023-03-01T07:13:00.281Z,99572.91
2023-03-01T07:15:26.610Z,99573.72
2023-03-01T07:17:52.988Z,99570.03
2023-03-01T07:20:19.682Z,99567.97
2023-03-01T07:22:46.001Z,99567.50
2023-03-01T07:25:12.387Z,99566.63
2023-03-01T07:27:38.708Z,99568.38
2023-03-01T07:30:05.283Z,99561.63
2023-03-01T07:32:31.653Z,99555.25
2023-03-01T07:34:58.045Z,99555.69
2023-03-01T07:37:24.413Z,99559.53
2023-03-01T07:39:50.786Z,99556.94
2023-03-01T07:42:17.111Z,99555.34
2023-03-01T07:44:43.431Z,99554.81
2023-03-01T07:47:09.775Z,99558.66
2023-03-01T07:49:36.112Z,99556.16
2023-03-01T07:52:02.430Z,99551.53
2023-03-01T07:54:28.757Z,99565.44
2023-03-01T07:56:55.760Z,99563.56
2023-03-01T07:59:22.113Z,99565.53
2023-03-01T08:01:48.448Z,99571.19
2023-03-01T08:04:14.905Z,99567.00
2023-03-01T08:06:41.235Z,99562.97
2023-03-01T08:09:08.814Z,99546.47
2023-03-01T08:11:35.160Z,99551.50
2023-03-01T08:14:01.654Z,99544.84
2023-03-01T08:16:28.181Z,99546.22
2023-03-01T08:18:57.507Z,99546.31
2023-03-01T08:21:23.850Z,99548.25
2023-03-01T08:23:50.178Z,99546.47
2023-03-01T08:26:17.735Z,99550.97
2023-03-01T08:28:44.087Z,99549.16
2023-03-01T08:31:26.940Z,99543.72
2023-03-01T08:33:56.359Z,99544.28
2023-03-01T08:36:23.341Z,99548.28
2023-03-01T08:38:49.668Z,99543.41
2023-03-01T08:41:15.975Z,99549.09
2023-03-01T08:43:42.549Z,99537.03
2023-03-01T08:46:08.963Z,99543.28
2023-03-01T08:48:35.346Z,99545.94
2023-03-01T08:51:08.486Z,99548.59
2023-03-01T08:53:34.816Z,99553.59
2023-03-01T08:56:01.898Z,99544.28
2023-03-01T08:58:28.230Z,99554.59
2023-03-01T09:00:54.540Z,99551.69
2023-03-01T09:03:20.844Z,99550.19
2023-03-01T09:05:47.159Z,99539.88
2023-03-01T09:08:13.586Z,99548.44
2023-03-01T09:10:40.427Z,99534.63
2023-03-01T09:13:06.755Z,99540.06
2023-03-01T09:15:34.384Z,99539.59
2023-03-01T09:18:00.914Z,99540.41
2023-03-01T09:20:27.234Z,99537.25
2023-03-01T09:22:53.547Z,99539.91
2023-03-01T09:25:19.855Z,99535.41
2023-03-01T09:27:46.166Z,99528.09
2023-03-01T09:30:12.619Z,99524.97
2023-03-01T09:32:43.446Z,99526.66
2023-03-01T09:35:09.800Z,99530.84
2023-03-01T09:37:36.207Z,99523.50
2023-03-01T09:40:04.875Z,99524.28
2023-03-01T09:42:32.122Z,99526.72
2023-03-01T09:45:05.598Z,99528.44
2023-03-01T09:47:32.232Z,99527.44
2023-03-01T09:50:18.771Z,99524.59
2023-03-01T09:52:47.860Z,99527.06
2023-03-01T09:55:15.037Z,99533.84
2023-03-01T09:57:46.254Z,99531.16
2023-03-01T10:00:18.273Z,99531.22
2023-03-01T10:02:49.643Z,99529.38
2023-03-01T10:05:30.742Z,99520.06
2023-03-01T10:08:09.238Z,99528.16
2023-03-01T10:10:36.343Z,99515.34
2023-03-01T10:13:04.427Z,99523.13
2023-03-01T10:15:35.700Z,99514.59
2023-03-01T10:18:11.432Z,99514.38
2023-03-01T10:20:46.341Z,99507.97
2023-03-01T10:23:12.666Z,99510.31
2023-03-01T10:25:45.098Z,99512.44
2023-03-01T10:28:17.046Z,99506.50
2023-03-01T10:30:44.773Z,99505.53
2023-03-01T10:33:37.754Z,99501.56
2023-03-01T10:36:04.141Z,99507.22
2023-03-01T10:38:31.412Z,99507.22
2023-03-01T10:41:00.454Z,99501.81
2023-03-01T10:43:27.375Z,99502.00
2023-03-01T10:45:55.702Z,99498.28
2023-03-01T10:48:27.294Z,99509.22
2023-03-01T10:50:59.846Z,99496.41
2023-03-01T10:53:27.331Z,99496.59
2023-03-01T10:56:00.603Z,99496.00
2023-03-01T10:58:26.925Z,99497.94
2023-03-01T11:01:03.824Z,99502.81
2023-03-01T11:03:31.844Z,99503.06
2023-03-01T11:06:13.353Z,99500.41
2023-03-01T11:08:43.520Z,99500.16
2023-03-01T11:11:17.941Z,99494.25
2023-03-01T11:13:57.731Z,99481.69
2023-03-01T11:16:27.116Z,99480.88
2023-03-01T11:19:00.187Z,99481.69
2023-03-01T11:21:26.604Z,99485.72
2023-03-01T11:23:53.360Z,99471.81
2023-03-01T11:26:19.929Z,99484.66
2023-03-01T11:28:47.120Z,99482.00
2023-03-01T11:31:13.591Z,99476.41
2023-03-01T11:33:50.631Z,99481.50
2023-03-01T11:36:19.007Z,99472.44
2023-03-01T11:38:45.407Z,99480.44
2023-03-01T11:41:18.948Z,99476.97
2023-03-01T11:44:04.523Z,99464.66
2023-03-01T11:46:34.173Z,99473.50
2023-03-01T11:49:03.624Z,99475.34
2023-03-01T11:51:33.145Z,99465.94
2023-03-01T11:54:18.500Z,99471.31
2023-03-01T11:56:46.903Z,99468.41
2023-03-01T11:59:13.141Z,99460.44
2023-03-01T12:01:42.272Z,99465.78
2023-03-01T12:04:19.346Z,99453.25
2023-03-01T12:06:48.709Z,99453.50
2023-03-01T12:09:33.542Z,99448.16
2023-03-01T12:12:02.801Z,99451.84
2023-03-01T12:14:41.293Z,99448.38
2023-03-01T12:17:10.677Z,99453.97
2023-03-01T12:19:36.948Z,99453.16
2023-03-01T12:22:07.406Z,99448.63
2023-03-01T12:24:36.800Z,99449.69
2023-03-01T12:27:09.231Z,99438.19
2023-03-01T12:29:35.776Z,99433.88
2023-03-01T12:32:09.067Z,99429.59
2023-03-01T12:34:38.540Z,99424.50
2023-03-01T12:37:10.780Z,99416.50
2023-03-01T12:39:37.010Z,99419.72
2023-03-01T12:42:12.492Z,99414.16
2023-03-01T12:44:57.104Z,99407.25
2023-03-01T12:47:37.461Z,99414.44
2023-03-01T12:50:22.594Z,99403.53
2023-03-01T12:52:50.670Z,99406.41
2023-03-01T12:55:37.186Z,99404.81
2023-03-01T12:58:16.287Z,99401.31
2023-03-01T13:00:47.261Z,99397.84
2023-03-01T13:03:17.091Z,99389.78
2023-03-01T13:05:47.516Z,99390.03
2023-03-01T13:08:29.229Z,99387.59
2023-03-01T13:11:02.502Z,99382.75
2023-03-01T13:13:28.895Z,99375.78
2023-03-01T13:15:55.284Z,99373.34
2023-03-01T13:18:23.929Z,99367.69
2023-03-01T13:20:50.865Z,99369.56
2023-03-01T13:23:20.150Z,99370.38
2023-03-01T13:26:01.772Z,99357.25
2023-03-01T13:28:33.409Z,99354.31
2023-03-01T13:30:59.755Z,99366.56
2023-03-01T13:33:28.966Z,99357.50
2023-03-01T13:35:55.771Z,99358.81
2023-03-01T13:38:37.805Z,99362.78
2023-03-01T13:41:04.583Z,99358.19
2023-03-01T13:43:35.481Z,99361.53
2023-03-01T13:46:02.049Z,99356.03
2023-03-01T13:48:29.048Z,99351.22
2023-03-01T13:51:02.720Z,99353.09
2023-03-01T13:53:30.703Z,99353.91
2023-03-01T13:55:59.841Z,99341.03
2023-03-01T13:58:30.407Z,99339.69
2023-03-01T14:00:57.509Z,99338.88
2023-03-01T14:03:23.972Z,99338.06
2023-03-01T14:06:15.686Z,99328.13
2023-03-01T14:08:43.134Z,99322.22
2023-03-01T14:11:28.457Z,99330.47
2023-03-01T14:14:02.325Z,99321.88
2023-03-01T14:16:28.743Z,99325.63
2023-03-01T14:18:58.801Z,99322.88
2023-03-01T14:21:26.607Z,99321.13
2023-03-01T14:23:53.495Z,99325.59
2023-03-01T14:26:22.982Z,99326.00
2023-03-01T14:28:49.386Z,99331.81
2023-03-01T14:31:33.034Z,99328.03
2023-03-01T14:34:02.638Z,99318.66
2023-03-01T14:36:29.936Z,99322.63
2023-03-01T14:38:56.443Z,99322.28
2023-03-01T14:41:24.613Z,99324.66
2023-03-01T14:44:07.709Z,99318.84
2023-03-01T14:46:44.193Z,99312.53
2023-03-01T14:49:14.731Z,99316.97
2023-03-01T14:51:41.298Z,99313.19
2023-03-01T14:54:27.341Z,99314.16
2023-03-01T14:56:54.033Z,99306.31
2023-03-01T14:59:23.993Z,99305.84
2023-03-01T15:01:50.927Z,99310.31
2023-03-01T15:04:17.333Z,99303.53
2023-03-01T15:06:43.692Z,99297.06
2023-03-01T15:09:13.067Z,99293.97
2023-03-01T15:11:42.330Z,99287.09
2023-03-01T15:14:27.153Z,99288.59
2023-03-01T15:16:53.543Z,99284.34
2023-03-01T15:19:20.070Z,99279.25
2023-03-01T15:21:47.889Z,99280.06
2023-03-01T15:24:20.621Z,99280.16
2023-03-01T15:26:52.169Z,99277.94
2023-03-01T15:29:19.407Z,99263.88
2023-03-01T15:31:54.543Z,99270.28
2023-03-01T15:34:24.881Z,99260.09
2023-03-01T15:36:51.839Z,99259.63
2023-03-01T15:39:44.616Z,99256.84
2023-03-01T15:42:26.318Z,99253.69
2023-03-01T15:44:58.862Z,99260.47
2023-03-01T15:47:31.458Z,99256.06
2023-03-01T15:49:58.144Z,99255.47
2023-03-01T15:52:31.840Z,99259.44
2023-03-01T15:55:01.711Z,99258.63
2023-03-01T15:57:28.242Z,99258.53
2023-03-01T15:59:54.588Z,99259.00
2023-03-01T16:02:22.056Z,99253.13
2023-03-01T16:04:49.669Z,99246.66
2023-03-01T16:07:16.001Z,99258.34
2023-03-01T16:09:42.858Z,99250.38
2023-03-01T16:12:15.875Z,99253.84
2023-03-01T16:14:42.205Z,99253.50
2023-03-01T16:17:10.975Z,99255.00
2023-03-01T16:19:38.480Z,99248.53
2023-03-01T16:22:04.846Z,99247.72
2023-03-01T16:24:31.165Z,99245.06
2023-03-01T16:26:57.473Z,99251.19
2023-03-01T16:29:24.078Z,99253.53
2023-03-01T16:31:50.549Z,99255.28
2023-03-01T16:34:17.102Z,99249.94
2023-03-01T16:36:43.554Z,99256.22
2023-03-01T16:39:10.293Z,99247.53
2023-03-01T16:41:36.609Z,99265.47
2023-03-01T16:44:02.962Z,99254.56
2023-03-01T16:46:29.351Z,99246.94
2023-03-01T16:48:55.748Z,99254.66
2023-03-01T16:51:22.203Z,99259.19
2023-03-01T16:53:48.646Z,99257.13
2023-03-01T16:56:15.017Z,99245.41
2023-03-01T16:58:41.451Z,99251.78
2023-03-01T17:01:08.472Z,99255.25
2023-03-01T17:03:34.821Z,99254.31
2023-03-01T17:06:08.345Z,99257.56
2023-03-01T17:08:34.689Z,99256.28
2023-03-01T17:11:19.578Z,99259.06
2023-03-01T17:13:45.894Z,99262.63
2023-03-01T17:16:13.062Z,99271.38
2023-03-01T17:18:39.488Z,99260.69
2023-03-01T17:21:06.111Z,99262.38
2023-03-01T17:23:32.426Z,99267.78
2023-03-01T17:25:58.743Z,99257.06
2023-03-01T17:28:25.852Z,99256.00
2023-03-01T17:30:52.406Z,99263.03
2023-03-01T17:33:18.808Z,99270.63
2023-03-01T17:35:47.198Z,99270.88
2023-03-01T17:38:16.558Z,99265.94
2023-03-01T17:40:42.899Z,99274.56
2023-03-01T17:43:09.472Z,99271.16
2023-03-01T17:45:36.905Z,99284.09
2023-03-01T17:48:03.617Z,99291.69
2023-03-01T17:50:29.973Z,99284.94
2023-03-01T17:52:56.329Z,99282.59
2023-03-01T17:55:22.637Z,99287.94
2023-03-01T17:57:48.950Z,99295.75
2023-03-01T18:00:15.605Z,99284.53
2023-03-01T18:02:42.433Z,99282.66
2023-03-01T18:05:08.955Z,99279.78
2023-03-01T18:07:35.270Z,99285.66
2023-03-01T18:10:01.613Z,99282.00
2023-03-01T18:12:27.944Z,99286.34
2023-03-01T18:14:54.264Z,99289.03
2023-03-01T18:17:23.009Z,99290.47
2023-03-01T18:19:50.349Z,99296.41
2023-03-01T18:22:16.661Z,99291.63
2023-03-01T18:24:43.023Z,99300.94
2023-03-01T18:30:32.736Z,99281.88
2023-03-01T18:32:59.055Z,99282.66
2023-03-01T18:35:25.369Z,99282.63
2023-03-01T18:37:51.837Z,99284.16
2023-03-01T18:40:18.184Z,99275.13
2023-03-01T18:42:44.491Z,99288.28
2023-03-01T18:45:14.516Z,99281.31
2023-03-01T18:47:41.145Z,99277.53
2023-03-01T18:50:07.644Z,99277.03
2023-03-01T18:52:33.954Z,99274.38
2023-03-01T18:55:00.283Z,99275.16
2023-03-01T18:57:26.601Z,99267.44
2023-03-01T18:59:52.940Z,99266.25
2023-03-01T19:02:19.342Z,99260.06
2023-03-01T19:04:45.773Z,99256.97
2023-03-01T19:07:12.497Z,99264.19
2023-03-01T19:09:39.295Z,99258.94
2023-03-01T19:12:06.185Z,99266.41
2023-03-01T19:14:32.541Z,99266.19
2023-03-01T19:16:58.850Z,99268.31
2023-03-01T19:19:25.155Z,99265.84
2023-03-01T19:22:04.895Z,99267.19
2023-03-01T19:24:32.795Z,99265.59
2023-03-01T19:26:59.115Z,99265.31
2023-03-01T19:29:26.265Z,99261.84
2023-03-01T19:31:52.633Z,99267.72
2023-03-01T19:34:19.017Z,99267.16
2023-03-01T19:36:45.730Z,99272.50
2023-03-01T19:39:13.398Z,99267.16
2023-03-01T19:41:39.878Z,99270.09
2023-03-01T19:44:06.335Z,99269.78
2023-03-01T19:46:33.615Z,99270.06
2023-03-01T19:49:01.000Z,99266.56
2023-03-01T19:51:27.445Z,99271.13
2023-03-01T19:53:54.801Z,99268.72
2023-03-01T19:56:21.279Z,99268.13
2023-03-01T19:58:50.081Z,99269.75
2023-03-01T20:01:20.004Z,99269.50
2023-03-01T20:03:46.412Z,99259.78
2023-03-01T20:06:16.592Z,99271.63
2023-03-01T20:08:44.506Z,99267.63
2023-03-01T20:11:11.257Z,99264.66
2023-03-01T20:13:37.628Z,99267.00
2023-03-01T20:16:04.291Z,99273.41
2023-03-01T20:18:30.629Z,99268.06
2023-03-01T20:20:57.828Z,99268.06
2023-03-01T20:23:24.176Z,99262.16
2023-03-01T20:25:50.584Z,99260.03
2023-03-01T20:28:17.328Z,99256.31
2023-03-01T20:30:43.793Z,99260.16
2023-03-01T20:33:10.107Z,99262.66
2023-03-01T20:35:36.563Z,99261.44
2023-03-01T20:38:03.314Z,99263.09
2023-03-01T20:40:29.690Z,99262.38
2023-03-01T20:42:55.992Z,99262.16
2023-03-01T20:45:22.294Z,99265.16
2023-03-01T20:47:48.859Z,99266.03
2023-03-01T20:50:15.414Z,99270.34
2023-03-01T20:52:47.274Z,99268.50
2023-03-01T20:55:14.204Z,99272.56
2023-03-01T20:57:40.545Z,99272.59
2023-03-01T21:00:07.185Z,99267.03
2023-03-01T21:02:33.514Z,99263.22
2023-03-01T21:04:59.820Z,99260.03
2023-03-01T21:07:26.154Z,99265.69
2023-03-01T21:09:52.511Z,99265.19
2023-03-01T21:12:18.866Z,99262.81
2023-03-01T21:14:47.109Z,99259.03
2023-03-01T21:17:14.330Z,99251.25
2023-03-01T21:19:43.544Z,99255.81
2023-03-01T21:22:10.330Z,99249.09
2023-03-01T21:24:36.885Z,99247.25
2023-03-01T21:27:06.499Z,99249.41
2023-03-01T21:29:42.867Z,99248.34
2023-03-01T21:32:09.556Z,99254.78
2023-03-01T21:34:36.264Z,99248.63
2023-03-01T21:37:02.620Z,99244.75
2023-03-01T21:39:29.124Z,99247.41
2023-03-01T21:41:56.376Z,99237.66
2023-03-01T21:44:23.340Z,99241.53
2023-03-01T21:46:49.914Z,99242.56
2023-03-01T21:49:16.229Z,99241.97
2023-03-01T21:51:42.569Z,99243.31
2023-03-01T21:54:09.644Z,99243.00
2023-03-01T21:56:38.847Z,99234.34
2023-03-01T21:59:05.911Z,99234.88
2023-03-01T22:01:32.422Z,99233.50
2023-03-01T22:03:59.275Z,99235.59
2023-03-01T22:06:28.112Z,99225.97
2023-03-01T22:08:58.501Z,99228.31
2023-03-01T22:11:26.244Z,99228.28
2023-03-01T22:13:52.736Z,99222.88
2023-03-01T22:16:19.586Z,99228.47
2023-03-01T22:18:46.081Z,99228.47
2023-03-01T22:21:12.415Z,99231.34
2023-03-01T22:23:38.910Z,99226.81
2023-03-01T22:26:05.247Z,99231.84
2023-03-01T22:28:31.564Z,99227.06
2023-03-01T22:30:57.893Z,99233.22
2023-03-01T22:33:24.223Z,99225.44
2023-03-01T22:35:50.613Z,99221.41
2023-03-01T22:38:16.948Z,99219.22
2023-03-01T22:40:43.274Z,99226.41
2023-03-01T22:43:09.586Z,99217.78
2023-03-01T22:45:35.984Z,99220.38
2023-03-01T22:48:04.778Z,99213.09
2023-03-01T22:50:31.096Z,99213.94
2023-03-01T22:52:57.496Z,99215.22
2023-03-01T22:55:23.827Z,99213.03
2023-03-01T22:57:50.591Z,99204.47
2023-03-01T23:00:17.134Z,99208.69
2023-03-01T23:02:43.570Z,99196.41
2023-03-01T23:05:09.940Z,99199.13
2023-03-01T23:07:37.366Z,99193.78
2023-03-01T23:10:04.591Z,99190.78
2023-03-01T23:12:30.931Z,99192.13
2023-03-01T23:14:57.343Z,99191.00
2023-03-01T23:17:23.852Z,99191.50
2023-03-01T23:19:51.290Z,99194.41
2023-03-01T23:22:18.283Z,99202.13
2023-03-01T23:24:44.650Z,99206.09
2023-03-01T23:27:13.851Z,99213.00
2023-03-01T23:29:40.197Z,99202.78
2023-03-01T23:32:06.690Z,99207.59
2023-03-01T23:34:33.095Z,99203.78
2023-03-01T23:36:59.436Z,99207.75
2023-03-01T23:39:25.943Z,99205.81
2023-03-01T23:41:52.292Z,99197.81
2023-03-01T23:44:19.285Z,99202.28
2023-03-01T23:46:45.888Z,99202.28
2023-03-01T23:49:12.862Z,99197.69
2023-03-01T23:51:44.444Z,99191.22
2023-03-01T23:54:11.126Z,99190.91
2023-03-01T23:56:38.410Z,99186.56
2023-03-01T23:59:06.320Z,99190.53
